Time;durP1;ratioP1;P1;durP2;ratioP2;P2;SDS_P1;SDS_P2;PMS_P1;PMS_P2;Temp;Humidity;BMP_temperature;BMP_pressure;BME280_temperature;BME280_humidity;BME280_pressure;Samples;Min_cycle;Max_cycle;Signal;HPM_P1;HPM_P2
2022/04/28 00:01:07;;;;;;;;;;;;;;;-144.59;100.00;62238.38;5053666;28;1977;-72
2022/04/28 00:03:33;;;;;;;;;;;;;;;-144.59;100.00;62238.38;5055072;28;803;-72
2022/04/28 00:05:59;;;;;;;;;;;;;;;-144.59;100.00;62238.38;5061785;28;2126;-73
2022/04/28 00:08:25;;;;;;;;;;;;;;;-144.59;100.00;62238.38;5069460;28;2311;-73
2022/04/28 00:10:51;;;;;;;;;;;;;;;-144.59;100.00;62238.38;5055429;28;2215;-73
2022/04/28 00:13:18;;;;;;;;;;;;;;;-144.59;100.00;62238.38;5055139;28;798;-72
2022/04/28 00:15:44;;;;;;;;;;;;;;;-144.59;100.00;62238.38;5055128;28;753;-72
2022/04/28 00:18:10;;;;;;;;;;;;;;;-144.59;100.00;62238.38;5054782;28;814;-74
2022/04/28 00:20:36;;;;;;;;;;;;;;;-144.59;100.00;62238.38;5054962;28;1898;-73
2022/04/28 00:23:02;;;;;;;;;;;;;;;-144.59;100.00;62238.38;5064104;28;2167;-73
2022/04/28 00:25:28;;;;;;;;;;;;;;;-144.59;100.00;62238.38;5074669;28;969;-73
2022/04/28 00:27:54;;;;;;;;;;;;;;;-144.59;100.00;62238.38;5074761;28;801;-73
2022/04/28 00:30:20;;;;;;;;;;;;;;;-144.59;100.00;62238.38;5074308;28;1173;-72
2022/04/28 00:32:46;;;;;;;;;;;;;;;-144.59;100.00;62238.38;5074916;28;885;-73
2022/04/28 00:35:12;;;;;;;;;;;;;;;-144.59;100.00;62238.38;5074685;28;854;-73
2022/04/28 00:37:38;;;;;;;;;;;;;;;-144.59;100.00;62238.38;5063114;28;2194;-72
2022/04/28 00:40:06;;;;;;;;;;;;;;;-144.59;100.00;62238.38;5054206;28;1914;-73
2022/04/28 00:42:32;;;;;;;;;;;;;;;-144.59;100.00;62238.38;5054747;28;750;-72
2022/04/28 00:44:58;;;;;;;;;;;;;;;-144.59;100.00;62238.38;5054797;28;921;-73
2022/04/28 00:50:38;;;;;;;;;;;;;;;-144.59;100.00;62238.38;5054439;28;953;-73
2022/04/28 00:52:57;;;;;;;;;;;;;;;-144.59;100.00;62238.38;5056431;28;2412;-73
2022/04/28 00:55:23;;;;;;;;;;;;;;;-144.59;100.00;62238.38;5054921;28;794;-73
2022/04/28 00:57:50;;;;;;;;;;;;;;;-144.59;100.00;62238.38;5054820;28;939;-72
2022/04/28 01:00:16;;;;;;;;;;;;;;;-144.59;100.00;62238.38;5054126;28;1969;-73
2022/04/28 01:02:43;;;;;;;;;;;;;;;-144.59;100.00;62238.38;5054234;28;830;-73
2022/04/28 01:05:09;;;;;;;;;;;;;;;-144.59;100.00;62238.38;5055166;28;2101;-73
2022/04/28 01:07:36;;;;;;;;;;;;;;;-144.59;100.00;62238.38;5069171;28;2130;-73
2022/04/28 01:10:04;;;;;;;;;;;;;;;-144.59;100.00;62238.38;5054238;28;809;-73
2022/04/28 01:12:30;;;;;;;;;;;;;;;-144.59;100.00;62238.38;5058820;28;898;-73
2022/04/28 01:14:56;;;;;;;;;;;;;;;-144.59;100.00;62238.38;5058429;28;874;-72
2022/04/28 01:17:22;;;;;;;;;;;;;;;-144.59;100.00;62238.38;5058396;28;858;-73
2022/04/28 01:19:48;;;;;;;;;;;;;;;-144.59;100.00;62238.38;5060761;28;2184;-73
2022/04/28 01:22:14;;;;;;;;;;;;;;;-144.59;100.00;62238.38;5078149;28;1968;-73
2022/04/28 01:24:40;;;;;;;;;;;;;;;-144.59;100.00;62238.38;5078211;28;818;-73
2022/04/28 01:27:07;;;;;;;;;;;;;;;-144.59;100.00;62238.38;5078212;28;976;-73
2022/04/28 01:29:34;;;;;;;;;;;;;;;-144.59;100.00;62238.38;5077534;28;817;-73
2022/04/28 01:32:00;;;;;;;;;;;;;;;-144.59;100.00;62238.38;5077992;28;1339;-73
2022/04/28 01:34:27;;;;;;;;;;;;;;;-144.59;100.00;62238.38;5072189;28;2130;-73
2022/04/28 01:36:52;;;;;;;;;;;;;;;-144.59;100.00;62238.38;5057919;28;811;-73
2022/04/28 01:39:19;;;;;;;;;;;;;;;-144.59;100.00;62238.38;5057607;28;883;-73
2022/04/28 01:41:48;;;;;;;;;;;;;;;-144.59;100.00;62238.38;5058696;28;2190;-73
2022/04/28 01:44:14;;;;;;;;;;;;;;;-144.59;100.00;62238.38;5057688;28;807;-72
2022/04/28 01:46:40;;;;;;;;;;;;;;;-144.59;100.00;62238.38;5058536;28;740;-73
2022/04/28 01:49:06;;;;;;;;;;;;;;;-144.59;100.00;62238.38;5064913;28;2157;-73
2022/04/28 01:57:02;;;;;;;;;;;;;;;-144.59;100.00;62238.38;5077752;28;888;-73
2022/04/28 01:59:28;;;;;;;;;;;;;;;-144.59;100.00;62238.38;5077275;28;976;-73
2022/04/28 02:01:53;;;;;;;;;;;;;;;-144.59;100.00;62238.38;5077532;28;1951;-73
2022/04/28 02:04:20;;;;;;;;;;;;;;;-144.59;100.00;62238.38;5062388;28;2142;-72
2022/04/28 02:06:46;;;;;;;;;;;;;;;-144.59;100.00;62238.38;5057928;28;806;-73
2022/04/28 02:09:12;;;;;;;;;;;;;;;-144.59;100.00;62238.38;5074946;28;2134;-73
2022/04/28 02:11:38;;;;;;;;;;;;;;;-144.59;100.00;62238.38;5077378;28;1257;-73
2022/04/28 02:14:04;;;;;;;;;;;;;;;-144.59;100.00;62238.38;5077549;28;888;-73
2022/04/28 02:16:30;;;;;;;;;;;;;;;-144.59;100.00;62238.38;5077280;28;799;-73
2022/04/28 02:18:56;;;;;;;;;;;;;;;-144.59;100.00;62238.38;5059441;28;2129;-73
2022/04/28 02:21:22;;;;;;;;;;;;;;;-144.59;100.00;62238.38;5055956;28;1894;-73
2022/04/28 02:23:48;;;;;;;;;;;;;;;-144.59;100.00;62238.38;5056527;28;928;-73
2022/04/28 02:26:14;;;;;;;;;;;;;;;-144.59;100.00;62238.38;5057222;28;814;-73
2022/04/28 02:28:40;;;;;;;;;;;;;;;-144.59;100.00;62238.38;5056604;28;771;-73
2022/04/28 02:31:06;;;;;;;;;;;;;;;-144.59;100.00;62238.38;5057089;28;1181;-73
2022/04/28 02:33:32;;;;;;;;;;;;;;;-144.59;100.00;62238.38;5075769;28;2193;-73
2022/04/28 02:35:58;;;;;;;;;;;;;;;-144.59;100.00;62238.38;5076763;28;953;-73
2022/04/28 02:38:24;;;;;;;;;;;;;;;-144.59;100.00;62238.38;5076275;28;801;-73
2022/04/28 02:40:50;;;;;;;;;;;;;;;-144.59;100.00;62238.38;5076355;28;1893;-73
2022/04/28 02:43:16;;;;;;;;;;;;;;;-144.59;100.00;62238.38;5076749;28;895;-73
2022/04/28 02:45:43;;;;;;;;;;;;;;;-144.59;100.00;62238.38;5075851;28;2012;-72
2022/04/28 02:48:09;;;;;;;;;;;;;;;-144.59;100.00;62238.38;5056514;28;806;-73
2022/04/28 02:50:35;;;;;;;;;;;;;;;-144.59;100.00;62238.38;5056456;28;1181;-73
2022/04/28 02:53:01;;;;;;;;;;;;;;;-144.59;100.00;62238.38;5056381;28;893;-73
2022/04/28 02:55:27;;;;;;;;;;;;;;;-144.59;100.00;62238.38;5056690;28;2134;-73
2022/04/28 02:57:53;;;;;;;;;;;;;;;-144.59;100.00;62238.38;5056466;28;829;-73
2022/04/28 03:00:19;;;;;;;;;;;;;;;-144.59;100.00;62238.38;5058734;28;2184;-73
2022/04/28 03:02:45;;;;;;;;;;;;;;;-144.59;100.00;62238.38;5076326;28;1957;-73
2022/04/28 03:05:11;;;;;;;;;;;;;;;-144.59;100.00;62238.38;5076687;28;844;-72
2022/04/28 03:10:53;;;;;;;;;;;;;;;-144.59;100.00;62238.38;5055876;28;1240;-73
2022/04/28 03:13:21;;;;;;;;;;;;;;;-144.59;100.00;62238.38;5056513;28;794;-72
2022/04/28 03:15:49;;;;;;;;;;;;;;;-144.59;100.00;62238.38;5067973;28;2105;-73
2022/04/28 03:18:16;;;;;;;;;;;;;;;-144.59;100.00;62238.38;5075671;28;970;-73
2022/04/28 03:20:42;;;;;;;;;;;;;;;-144.59;100.00;62238.38;5076034;28;1173;-73
2022/04/28 03:23:11;;;;;;;;;;;;;;;-144.59;100.00;62238.38;5075804;28;1894;-73
2022/04/28 03:25:38;;;;;;;;;;;;;;;-144.59;100.00;62238.38;5075901;28;813;-72
2022/04/28 03:28:04;;;;;;;;;;;;;;;-144.59;100.00;62238.38;5076105;28;971;-73
2022/04/28 03:30:30;;;;;;;;;;;;;;;-144.59;100.00;62238.38;5060296;28;2185;-73
2022/04/28 03:32:57;;;;;;;;;;;;;;;-144.59;100.00;62238.38;5055601;28;862;-73
2022/04/28 03:35:23;;;;;;;;;;;;;;;-144.59;100.00;62238.38;5055540;28;2122;-73
2022/04/28 03:37:49;;;;;;;;;;;;;;;-144.59;100.00;62238.38;5055772;28;986;-73
2022/04/28 03:40:16;;;;;;;;;;;;;;;-144.59;100.00;62238.38;5055112;28;1197;-73
2022/04/28 03:42:43;;;;;;;;;;;;;;;-144.59;100.00;62238.38;5055487;28;1965;-73
2022/04/28 03:45:10;;;;;;;;;;;;;;;-144.59;100.00;62238.38;5072544;28;2112;-72
2022/04/28 03:47:36;;;;;;;;;;;;;;;-144.59;100.00;62238.38;5075409;28;822;-73
2022/04/28 03:50:04;;;;;;;;;;;;;;;-144.59;100.00;62238.38;5074907;28;1196;-73
2022/04/28 03:52:30;;;;;;;;;;;;;;;-144.59;100.00;62238.38;5075599;28;880;-73
2022/04/28 03:54:56;;;;;;;;;;;;;;;-144.59;100.00;62238.38;5075380;28;794;-73
2022/04/28 03:57:22;;;;;;;;;;;;;;;-144.59;100.00;62238.38;5075339;28;941;-73
2022/04/28 03:59:48;;;;;;;;;;;;;;;-144.59;100.00;62238.38;5055081;28;2941;-73
2022/04/28 04:02:14;;;;;;;;;;;;;;;-144.59;100.00;62238.38;5055272;28;1890;-73
2022/04/28 04:04:40;;;;;;;;;;;;;;;-144.59;100.00;62238.38;5055163;28;834;-73
2022/04/28 04:07:07;;;;;;;;;;;;;;;-144.59;100.00;62238.38;5055571;28;838;-72
2022/04/28 04:09:33;;;;;;;;;;;;;;;-144.59;100.00;62238.38;5071549;28;1861;-73
2022/04/28 04:11:59;;;;;;;;;;;;;;;-144.59;100.00;62238.38;5075320;28;1252;-72
2022/04/28 04:14:25;;;;;;;;;;;;;;;-144.59;100.00;62238.38;5075390;28;756;-73
2022/04/28 04:16:51;;;;;;;;;;;;;;;-144.59;100.00;62238.38;5075144;28;829;-73
2022/04/28 04:19:17;;;;;;;;;;;;;;;-144.59;100.00;62238.38;5072972;28;921;-73
2022/04/28 04:21:43;;;;;;;;;;;;;;;-144.59;100.00;62238.38;5072749;28;2888;-73
2022/04/28 04:24:09;;;;;;;;;;;;;;;-144.59;100.00;62238.38;5055170;28;810;-73
2022/04/28 04:26:35;;;;;;;;;;;;;;;-144.59;100.00;62238.38;5055165;28;803;-73
2022/04/28 04:29:01;;;;;;;;;;;;;;;-144.59;100.00;62238.38;5054439;28;832;-73
2022/04/28 04:34:11;;;;;;;;;;;;;;;-144.59;100.00;62238.38;5054894;28;931;-73
2022/04/28 04:36:37;;;;;;;;;;;;;;;-144.59;100.00;62238.38;5060523;28;2102;-72
2022/04/28 04:39:03;;;;;;;;;;;;;;;-144.59;100.00;62238.38;5074378;28;906;-73
2022/04/28 04:41:29;;;;;;;;;;;;;;;-144.59;100.00;62238.38;5074368;28;1963;-73
2022/04/28 04:43:55;;;;;;;;;;;;;;;-144.59;100.00;62238.38;5074581;28;904;-73
2022/04/28 04:46:21;;;;;;;;;;;;;;;-144.59;100.00;62238.38;5074183;28;837;-73
2022/04/28 04:48:48;;;;;;;;;;;;;;;-144.59;100.00;62238.38;5074100;28;892;-73
2022/04/28 04:51:14;;;;;;;;;;;;;;;-144.59;100.00;62238.38;5072647;28;2120;-72
2022/04/28 04:53:40;;;;;;;;;;;;;;;-144.59;100.00;62238.38;5073954;28;2261;-73
2022/04/28 04:56:06;;;;;;;;;;;;;;;-144.59;100.00;62238.38;5062437;28;2094;-73
2022/04/28 04:58:31;;;;;;;;;;;;;;;-144.59;100.00;62238.38;5054277;28;787;-73
2022/04/28 05:00:57;;;;;;;;;;;;;;;-144.59;100.00;62238.38;5054758;28;1174;-73
2022/04/28 05:03:24;;;;;;;;;;;;;;;-144.59;100.00;62238.38;5064270;28;8212;-72
2022/04/28 05:05:53;;;;;;;;;;;;;;;-144.59;100.00;62238.38;5053151;28;813;-72
2022/04/28 05:08:19;;;;;;;;;;;;;;;-144.59;100.00;62238.38;5061043;28;2140;-72
2022/04/28 05:10:45;;;;;;;;;;;;;;;-144.59;100.00;62238.38;5074482;28;1189;-72
2022/04/28 05:13:11;;;;;;;;;;;;;;;-144.59;100.00;62238.38;5074121;28;787;-72
2022/04/28 05:15:37;;;;;;;;;;;;;;;-144.59;100.00;62238.38;5074812;28;877;-72
2022/04/28 05:18:03;;;;;;;;;;;;;;;-144.59;100.00;62238.38;5059135;28;2197;-72
2022/04/28 05:20:29;;;;;;;;;;;;;;;-144.59;100.00;62238.38;5052821;28;3218;-70
2022/04/28 05:22:55;;;;;;;;;;;;;;;-144.59;100.00;62238.38;5072043;28;5611;-72
2022/04/28 05:25:21;;;;;;;;;;;;;;;-144.59;100.00;62238.38;5074087;28;809;-73
2022/04/28 05:27:47;;;;;;;;;;;;;;;-144.59;100.00;62238.38;5073997;28;5619;-72
2022/04/28 05:30:13;;;;;;;;;;;;;;;-144.59;100.00;62238.38;5073405;28;1213;-72
2022/04/28 05:32:39;;;;;;;;;;;;;;;-144.59;100.00;62238.38;5056423;28;2190;-72
2022/04/28 05:35:06;;;;;;;;;;;;;;;-144.59;100.00;62238.38;5053958;28;2192;-72
2022/04/28 05:37:31;;;;;;;;;;;;;;;-144.59;100.00;62238.38;5052738;28;908;-72
2022/04/28 05:39:58;;;;;;;;;;;;;;;-144.59;100.00;62238.38;5064632;28;4436;-72
2022/04/28 05:45:41;;;;;;;;;;;;;;;-144.59;100.00;62238.38;5073560;28;1955;-72
2022/04/28 05:47:55;;;;;;;;;;;;;;;-144.59;100.00;62238.38;5053632;28;1718;-72
2022/04/28 05:50:21;;;;;;;;;;;;;;;-144.59;100.00;62238.38;5053173;28;1370;-72
2022/04/28 05:52:47;;;;;;;;;;;;;;;-144.59;100.00;62238.38;5068475;28;2251;-72
2022/04/28 05:55:13;;;;;;;;;;;;;;;-144.59;100.00;62238.38;5073646;28;874;-72
2022/04/28 05:57:39;;;;;;;;;;;;;;;-144.59;100.00;62238.38;5076848;28;952;-72
2022/04/28 06:00:06;;;;;;;;;;;;;;;-144.59;100.00;62238.38;5076770;28;1319;-72
2022/04/28 06:02:33;;;;;;;;;;;;;;;-144.59;100.00;62238.38;5077186;28;1959;-72
2022/04/28 06:05:00;;;;;;;;;;;;;;;-144.59;100.00;62238.38;5077286;28;814;-72
2022/04/28 06:07:26;;;;;;;;;;;;;;;-144.59;100.00;62238.38;5058429;28;2284;-72
2022/04/28 06:09:52;;;;;;;;;;;;;;;-144.59;100.00;62238.38;5056639;28;898;-72
2022/04/28 06:12:18;;;;;;;;;;;;;;;-144.59;100.00;62238.38;5063664;28;1323;-72
2022/04/28 06:14:44;;;;;;;;;;;;;;;-144.59;100.00;62238.38;5076976;28;820;-72
2022/04/28 06:17:10;;;;;;;;;;;;;;;-144.59;100.00;62238.38;5076815;28;2391;-72
2022/04/28 06:19:36;;;;;;;;;;;;;;;-144.59;100.00;62238.38;5076292;28;2034;-73
2022/04/28 06:22:02;;;;;;;;;;;;;;;-144.59;100.00;62238.38;5056829;28;2586;-72
2022/04/28 06:24:28;;;;;;;;;;;;;;;-144.59;100.00;62238.38;5057042;28;878;-73
2022/04/28 06:26:54;;;;;;;;;;;;;;;-144.59;100.00;62238.38;5057499;28;782;-72
2022/04/28 06:29:20;;;;;;;;;;;;;;;-144.59;100.00;62238.38;5056506;28;1019;-72
2022/04/28 06:31:46;;;;;;;;;;;;;;;-144.59;100.00;62238.38;5057789;28;1240;-72
2022/04/28 06:34:12;;;;;;;;;;;;;;;-144.59;100.00;62238.38;5057050;28;825;-71
2022/04/28 06:36:39;;;;;;;;;;;;;;;-144.59;100.00;62238.38;5057454;28;2279;-72
2022/04/28 06:39:04;;;;;;;;;;;;;;;-144.59;100.00;62238.38;5076259;28;873;-72
2022/04/28 06:41:30;;;;;;;;;;;;;;;-144.59;100.00;62238.38;5076920;28;1296;-72
2022/04/28 06:43:56;;;;;;;;;;;;;;;-144.59;100.00;62238.38;5076886;28;1901;-72
2022/04/28 06:46:22;;;;;;;;;;;;;;;-144.59;100.00;62238.38;5076587;28;1038;-72
2022/04/28 06:48:48;;;;;;;;;;;;;;;-144.59;100.00;62238.38;5076174;28;949;-72
2022/04/28 06:51:15;;;;;;;;;;;;;;;-144.59;100.00;62238.38;5076302;28;1260;-73
2022/04/28 06:53:41;;;;;;;;;;;;;;;-144.59;100.00;62238.38;5074359;28;2184;-71
2022/04/28 06:56:07;;;;;;;;;;;;;;;-144.59;100.00;62238.38;5076310;28;879;-72
2022/04/28 06:58:35;;;;;;;;;;;;;;;-144.59;100.00;62238.38;5080528;28;830;-72
2022/04/28 07:01:01;;;;;;;;;;;;;;;-144.59;100.00;62238.38;5080796;28;1271;-72
2022/04/28 07:03:27;;;;;;;;;;;;;;;-144.59;100.00;62238.38;5076042;28;1898;-71
2022/04/28 07:05:53;;;;;;;;;;;;;;;-144.59;100.00;62238.38;5076473;28;798;-72
2022/04/28 07:08:19;;;;;;;;;;;;;;;-144.59;100.00;62238.38;5066924;28;2258;-72
2022/04/28 07:10:45;;;;;;;;;;;;;;;-144.59;100.00;62238.38;5054281;28;2353;-73
2022/04/28 07:13:11;;;;;;;;;;;;;;;-144.59;100.00;62238.38;5056072;28;908;-72
2022/04/28 07:15:38;;;;;;;;;;;;;;;-144.59;100.00;62238.38;5069832;28;3689;-72
2022/04/28 07:18:05;;;;;;;;;;;;;;;-144.59;100.00;62238.38;5055929;28;807;-72
2022/04/28 07:20:35;;;;;;;;;;;;;;;-144.59;100.00;62238.38;5054888;28;2265;-72
2022/04/28 07:23:01;;;;;;;;;;;;;;;-144.59;100.00;62238.38;5055604;28;1898;-72
2022/04/28 07:25:30;;;;;;;;;;;;;;;-144.59;100.00;62238.38;5055775;28;2189;-72
2022/04/28 07:27:57;;;;;;;;;;;;;;;-144.59;100.00;62238.38;5055679;28;930;-72
2022/04/28 07:30:24;;;;;;;;;;;;;;;-144.59;100.00;62238.38;5055088;28;1189;-72
2022/04/28 07:32:51;;;;;;;;;;;;;;;-144.59;100.00;62238.38;5055616;28;959;-72
2022/04/28 07:35:19;;;;;;;;;;;;;;;-144.59;100.00;62238.38;5055536;28;818;-72
2022/04/28 07:37:45;;;;;;;;;;;;;;;-144.59;100.00;62238.38;5055622;28;896;-72
2022/04/28 07:40:11;;;;;;;;;;;;;;;-144.59;100.00;62238.38;5056805;28;2206;-73
2022/04/28 07:42:37;;;;;;;;;;;;;;;-144.59;100.00;62238.38;5072107;28;2396;-72
2022/04/28 07:45:04;;;;;;;;;;;;;;;-144.59;100.00;62238.38;5072789;28;2189;-72
2022/04/28 07:47:31;;;;;;;;;;;;;;;-144.59;100.00;62238.38;5075094;28;823;-72
2022/04/28 07:49:57;;;;;;;;;;;;;;;-144.59;100.00;62238.38;5072796;28;2344;-72
2022/04/28 07:52:23;;;;;;;;;;;;;;;-144.59;100.00;62238.38;5075246;28;1169;-73
2022/04/28 07:54:49;;;;;;;;;;;;;;;-144.59;100.00;62238.38;5075057;28;1039;-72
2022/04/28 07:57:15;;;;;;;;;;;;;;;-144.59;100.00;62238.38;5074956;28;747;-72
2022/04/28 07:59:42;;;;;;;;;;;;;;;-144.59;100.00;62238.38;5074507;28;744;-72
2022/04/28 08:02:13;;;;;;;;;;;;;;;-144.59;100.00;62238.38;5074942;28;1169;-72
2022/04/28 08:04:40;;;;;;;;;;;;;;;-144.59;100.00;62238.38;5072802;28;2121;-72
2022/04/28 08:07:06;;;;;;;;;;;;;;;-144.59;100.00;62238.38;5074249;28;2121;-72
2022/04/28 08:09:32;;;;;;;;;;;;;;;-144.59;100.00;62238.38;5074509;28;862;-72
2022/04/28 08:11:58;;;;;;;;;;;;;;;-144.59;100.00;62238.38;5074708;28;1268;-72
2022/04/28 08:14:25;;;;;;;;;;;;;;;-144.59;100.00;62238.38;5074953;28;806;-72
2022/04/28 08:16:51;;;;;;;;;;;;;;;-144.59;100.00;62238.38;5074793;28;4000;-72
2022/04/28 08:19:19;;;;;;;;;;;;;;;-144.59;100.00;62238.38;5073674;28;809;-72
2022/04/28 08:21:46;;;;;;;;;;;;;;;-144.59;100.00;62238.38;5072221;28;2345;-72
2022/04/28 08:24:12;;;;;;;;;;;;;;;-144.59;100.00;62238.38;5069470;28;2398;-72
2022/04/28 08:26:38;;;;;;;;;;;;;;;-144.59;100.00;62238.38;5054778;28;889;-72
2022/04/28 08:29:04;;;;;;;;;;;;;;;-144.59;100.00;62238.38;5053987;28;863;-72
2022/04/28 08:31:31;;;;;;;;;;;;;;;-144.59;100.00;62238.38;5054472;28;1284;-73
2022/04/28 08:33:57;;;;;;;;;;;;;;;-144.59;100.00;62238.38;5054214;28;926;-72
2022/04/28 08:36:23;;;;;;;;;;;;;;;-144.59;100.00;62238.38;5054004;28;2185;-72
2022/04/28 08:38:49;;;;;;;;;;;;;;;-144.59;100.00;62238.38;5053688;28;915;-72
2022/04/28 08:41:32;;;;;;;;;;;;;;;-144.59;100.00;62238.38;5054130;28;1296;-72
2022/04/28 08:44:00;;;;;;;;;;;;;;;-144.59;100.00;62238.38;5054051;28;1949;-72
2022/04/28 08:49:13;;;;;;;;;;;;;;;-144.59;100.00;62238.38;5073880;28;844;-72
2022/04/28 08:51:41;;;;;;;;;;;;;;;-144.59;100.00;62238.38;5073577;28;2161;-72
2022/04/28 08:54:10;;;;;;;;;;;;;;;-144.59;100.00;62238.38;5055178;28;2343;-72
2022/04/28 08:56:39;;;;;;;;;;;;;;;-144.59;100.00;62238.38;5054103;28;892;-73
2022/04/28 08:59:06;;;;;;;;;;;;;;;-144.59;100.00;62238.38;5053032;28;2239;-72
2022/04/28 09:01:32;;;;;;;;;;;;;;;-144.59;100.00;62238.38;5054122;28;1145;-73
2022/04/28 09:04:01;;;;;;;;;;;;;;;-144.59;100.00;62238.38;5073765;28;1894;-72
2022/04/28 09:06:30;;;;;;;;;;;;;;;-144.59;100.00;62238.38;5073996;28;790;-72
2022/04/28 09:08:57;;;;;;;;;;;;;;;-144.59;100.00;62238.38;5073411;28;786;-72
2022/04/28 09:11:27;;;;;;;;;;;;;;;-144.59;100.00;62238.38;5074196;28;1212;-72
2022/04/28 09:14:16;;;;;;;;;;;;;;;-144.59;100.00;62238.38;5063183;28;2230;-72
2022/04/28 09:16:52;;;;;;;;;;;;;;;-144.59;100.00;62238.38;5054986;28;2288;-72
2022/04/28 09:19:24;;;;;;;;;;;;;;;-144.59;100.00;62238.38;5060217;28;937;-72
2022/04/28 09:21:53;;;;;;;;;;;;;;;-144.59;100.00;62238.38;5073892;28;1177;-72
2022/04/28 09:24:23;;;;;;;;;;;;;;;-144.59;100.00;62238.38;5071774;28;2275;-73
2022/04/28 09:26:53;;;;;;;;;;;;;;;-144.59;100.00;62238.38;5073932;28;746;-72
2022/04/28 09:29:21;;;;;;;;;;;;;;;-144.59;100.00;62238.38;5073680;28;779;-72
2022/04/28 09:31:49;;;;;;;;;;;;;;;-144.59;100.00;62238.38;5059125;28;2260;-72
2022/04/28 09:34:17;;;;;;;;;;;;;;;-144.59;100.00;62238.38;5057649;28;795;-72
2022/04/28 09:36:45;;;;;;;;;;;;;;;-144.59;100.00;62238.38;5057865;28;795;-72
2022/04/28 09:44:59;;;;;;;;;;;;;;;-144.59;100.00;62238.38;5057639;28;1978;-73
2022/04/28 09:47:27;;;;;;;;;;;;;;;-144.59;100.00;62238.38;5057621;28;2174;-72
2022/04/28 09:49:57;;;;;;;;;;;;;;;-144.59;100.00;62238.38;5057152;28;921;-73
2022/04/28 09:52:26;;;;;;;;;;;;;;;-144.59;100.00;62238.38;5057493;28;1206;-73
2022/04/28 09:54:54;;;;;;;;;;;;;;;-144.59;100.00;62238.38;5057143;28;975;-73
2022/04/28 09:57:22;;;;;;;;;;;;;;;-144.59;100.00;62238.38;5057408;28;951;-73
2022/04/28 09:59:50;;;;;;;;;;;;;;;-144.59;100.00;62238.38;5056896;28;806;-72
2022/04/28 10:02:19;;;;;;;;;;;;;;;-144.59;100.00;62238.38;5056940;28;1272;-73
2022/04/28 10:04:46;;;;;;;;;;;;;;;-144.59;100.00;62238.38;5069895;28;2187;-73
2022/04/28 10:07:13;;;;;;;;;;;;;;;-144.59;100.00;62238.38;5077216;28;930;-73
2022/04/28 10:09:48;;;;;;;;;;;;;;;-144.59;100.00;62238.38;5076585;28;938;-73
2022/04/28 10:12:17;;;;;;;;;;;;;;;-144.59;100.00;62238.38;5074749;28;2243;-72
2022/04/28 10:14:45;;;;;;;;;;;;;;;-144.59;100.00;62238.38;5075335;28;2168;-72
2022/04/28 10:17:25;;;;;;;;;;;;;;;-144.59;100.00;62238.38;5077056;28;3858;-73
2022/04/28 10:19:56;;;;;;;;;;;;;;;-144.59;100.00;62238.38;5059949;28;2286;-75
2022/04/28 10:22:29;;;;;;;;;;;;;;;-144.59;100.00;62238.38;5060528;28;2611;-76
2022/04/28 10:33:19;;;;;;;;;;;;;;;-144.59;100.00;62238.38;5070429;28;1885;-75
2022/04/28 10:35:53;;;;;;;;;;;;;;;-144.59;100.00;62238.38;5056891;28;2038;-75
2022/04/28 10:38:24;;;;;;;;;;;;;;;-144.59;100.00;62238.38;5056697;28;778;-75
2022/04/28 10:41:06;;;;;;;;;;;;;;;-144.59;100.00;62238.38;5057615;28;2935;-74
2022/04/28 10:43:32;;;;;;;;;;;;;;;-144.59;100.00;62238.38;5055690;28;1893;-75
2022/04/28 10:46:22;;;;;;;;;;;;;;;-144.59;100.00;62238.38;5063070;28;2156;-75
2022/04/28 10:48:53;;;;;;;;;;;;;;;-144.59;100.00;62238.38;5055877;28;2076;-75
2022/04/28 10:51:22;;;;;;;;;;;;;;;-144.59;100.00;62238.38;5057404;28;2102;-75
2022/04/28 10:53:54;;;;;;;;;;;;;;;-144.59;100.00;62238.38;5056485;28;2164;-75
2022/04/28 10:56:21;;;;;;;;;;;;;;;-144.59;100.00;62238.38;5056470;28;810;-75
2022/04/28 10:58:47;;;;;;;;;;;;;;;-144.59;100.00;62238.38;5055826;28;824;-75
2022/04/28 11:01:27;;;;;;;;;;;;;;;-144.59;100.00;62238.38;5072193;28;2132;-75
2022/04/28 11:04:03;;;;;;;;;;;;;;;-144.59;100.00;62238.38;5058567;28;2101;-75
2022/04/28 11:06:31;;;;;;;;;;;;;;;-144.59;100.00;62238.38;5066879;28;2229;-75
2022/04/28 11:09:00;;;;;;;;;;;;;;;-144.59;100.00;62238.38;5073620;28;1799;-75
2022/04/28 11:11:29;;;;;;;;;;;;;;;-144.59;100.00;62238.38;5076284;28;1262;-75
2022/04/28 11:13:58;;;;;;;;;;;;;;;-144.59;100.00;62238.38;5076252;28;820;-75
2022/04/28 11:16:26;;;;;;;;;;;;;;;-144.59;100.00;62238.38;5076271;28;794;-75
2022/04/28 11:18:54;;;;;;;;;;;;;;;-144.59;100.00;62238.38;5066756;28;5572;-75
2022/04/28 11:21:21;;;;;;;;;;;;;;;-144.59;100.00;62238.38;5057567;28;2548;-73
2022/04/28 11:23:48;;;;;;;;;;;;;;;-144.59;100.00;62238.38;5055797;28;1953;-73
2022/04/28 11:26:14;;;;;;;;;;;;;;;-144.59;100.00;62238.38;5072273;28;2822;-74
2022/04/28 11:28:42;;;;;;;;;;;;;;;-144.59;100.00;62238.38;5075222;28;790;-74
2022/04/28 11:31:11;;;;;;;;;;;;;;;-144.59;100.00;62238.38;5075725;28;1256;-73
2022/04/28 11:33:42;;;;;;;;;;;;;;;-144.59;100.00;62238.38;5070558;28;2197;-73
2022/04/28 11:36:25;;;;;;;;;;;;;;;-144.59;100.00;62238.38;5055241;28;828;-73
2022/04/28 11:38:57;;;;;;;;;;;;;;;-144.59;100.00;62238.38;5054680;28;866;-74
2022/04/28 11:41:34;;;;;;;;;;;;;;;-144.59;100.00;62238.38;5055146;28;1217;-73
2022/04/28 11:44:12;;;;;;;;;;;;;;;-144.59;100.00;62238.38;5055111;28;1893;-73
2022/04/28 11:46:49;;;;;;;;;;;;;;;-144.59;100.00;62238.38;5055604;28;753;-73
2022/04/28 11:49:15;;;;;;;;;;;;;;;-144.59;100.00;62238.38;5054379;28;2343;-73
2022/04/28 11:51:41;;;;;;;;;;;;;;;-144.59;100.00;62238.38;5060629;28;2204;-74
2022/04/28 11:54:27;;;;;;;;;;;;;;;-144.59;100.00;62238.38;5075019;28;743;-73
2022/04/28 11:57:10;;;;;;;;;;;;;;;-144.59;100.00;62238.38;5075185;28;847;-73
2022/04/28 11:59:37;;;;;;;;;;;;;;;-144.59;100.00;62238.38;5074576;28;809;-73
2022/04/28 12:02:04;;;;;;;;;;;;;;;-144.59;100.00;62238.38;5074912;28;1267;-74
2022/04/28 12:04:30;;;;;;;;;;;;;;;-144.59;100.00;62238.38;5063795;28;2458;-75
2022/04/28 12:06:56;;;;;;;;;;;;;;;-144.59;100.00;62238.38;5066209;28;2301;-75
2022/04/28 12:14:55;;;;;;;;;;;;;;;-144.59;100.00;62238.38;5062389;28;4058;-75
2022/04/28 12:20:10;;;;;;;;;;;;;;;-144.59;100.00;62238.38;5072956;28;2140;-75
2022/04/28 12:22:39;;;;;;;;;;;;;;;-144.59;100.00;62238.38;5053268;28;2379;-75
2022/04/28 12:25:10;;;;;;;;;;;;;;;-144.59;100.00;62238.38;5052688;28;1894;-72
2022/04/28 12:27:45;;;;;;;;;;;;;;;-144.59;100.00;62238.38;5058354;28;1671;-71
2022/04/28 12:30:14;;;;;;;;;;;;;;;-144.59;100.00;62238.38;5054102;28;2070;-75
2022/04/28 12:32:46;;;;;;;;;;;;;;;-144.59;100.00;62238.38;5054492;28;1610;-76
2022/04/28 12:35:30;;;;;;;;;;;;;;;-144.59;100.00;62238.38;5054450;28;946;-76
2022/04/28 12:38:01;;;;;;;;;;;;;;;-144.59;100.00;62238.38;5054446;28;1140;-73
2022/04/28 12:40:42;;;;;;;;;;;;;;;-144.59;100.00;62238.38;5053564;28;1248;-71
2022/04/28 12:43:09;;;;;;;;;;;;;;;-144.59;100.00;62238.38;5059610;28;1584;-73
2022/04/28 12:45:40;;;;;;;;;;;;;;;-144.59;100.00;62238.38;5055179;28;1949;-74
2022/04/28 12:48:21;;;;;;;;;;;;;;;-144.59;100.00;62238.38;5054331;28;741;-70
2022/04/28 12:50:48;;;;;;;;;;;;;;;-144.59;100.00;62238.38;5054095;28;1335;-73
2022/04/28 12:53:33;;;;;;;;;;;;;;;-144.59;100.00;62238.38;5053766;28;1878;-72
2022/04/28 12:56:07;;;;;;;;;;;;;;;-144.59;100.00;62238.38;5054246;28;2185;-72
2022/04/28 12:58:42;;;;;;;;;;;;;;;-144.59;100.00;62238.38;5053919;28;768;-73
2022/04/28 13:01:10;;;;;;;;;;;;;;;-144.59;100.00;62238.38;5054015;28;1231;-75
2022/04/28 13:03:37;;;;;;;;;;;;;;;-144.59;100.00;62238.38;5054832;28;2230;-75
2022/04/28 13:06:04;;;;;;;;;;;;;;;-144.59;100.00;62238.38;5055702;28;1889;-73
2022/04/28 13:08:31;;;;;;;;;;;;;;;-144.59;100.00;62238.38;5059539;28;1677;-73
2022/04/28 13:10:57;;;;;;;;;;;;;;;-144.59;100.00;62238.38;5060269;28;1970;-73
2022/04/28 13:13:23;;;;;;;;;;;;;;;-144.59;100.00;62238.38;5064465;28;3861;-73
2022/04/28 13:15:49;;;;;;;;;;;;;;;-144.59;100.00;62238.38;5080565;28;880;-75